Terminal Aerodrome Forecast
Issued by NWS

Home | Current Version | Previous Version | Text Only | Print | Product List | Glossary On
Versions: 1 2 3 4 5 6 7 8 9 10 11 12 13 14 15 16 17 18
000
FTUS46 KMTR 210545
TAFSJC
TAF
KSJC 210545Z 2106/2206 13006KT P6SM VCSH FEW004 SCT045 BKN060
     FM210900 15010KT P6SM VCSH BKN050 OVC100
     FM211900 17010KT P6SM VCSH BKN050 OVC100
     FM220300 13010KT P6SM -RA BKN035=

USA.gov is the U.S. government's official web portal to all federal, state and local government web resources and services.